Time;durP1;ratioP1;P1;durP2;ratioP2;P2;SDS_P1;SDS_P2;PMS_P1;PMS_P2;Temp;Humidity;BMP_temperature;BMP_pressure;BME280_temperature;BME280_humidity;BME280_pressure;Samples;Min_cycle;Max_cycle;Signal;HPM_P1;HPM_P2
2021/01/08 00:02:19;;;;;;;8.10;7.30;;;4.50;42.40;;;;;;5013176;28;20431;-67
2021/01/08 00:04:45;;;;;;;8.17;7.37;;;4.80;42.20;;;;;;5012962;28;20468;-66
2021/01/08 00:07:11;;;;;;;7.90;7.10;;;5.00;40.60;;;;;;5012224;28;20881;-66
2021/01/08 00:09:37;;;;;;;7.90;6.90;;;4.90;41.60;;;;;;5013273;28;20934;-66
2021/01/08 00:12:03;;;;;;;7.60;6.80;;;5.20;41.00;;;;;;5011929;28;20404;-65
2021/01/08 00:14:28;;;;;;;9.10;7.03;;;5.00;40.80;;;;;;5011951;28;20201;-65
2021/01/08 00:16:54;;;;;;;7.63;6.90;;;5.10;41.40;;;;;;5013134;28;20450;-66
2021/01/08 00:19:19;;;;;;;8.20;7.40;;;5.30;41.70;;;;;;5012827;28;20181;-65
2021/01/08 00:21:45;;;;;;;7.30;6.53;;;5.30;40.10;;;;;;5013048;28;20169;-65
2021/01/08 00:24:14;;;;;;;10.93;8.00;;;5.20;40.50;;;;;;5012713;28;20591;-66
2021/01/08 00:26:41;;;;;;;7.87;7.07;;;5.40;40.60;;;;;;5012914;28;20182;-66
2021/01/08 00:29:08;;;;;;;8.07;7.27;;;5.60;39.80;;;;;;5011500;28;20804;-66
2021/01/08 00:31:42;;;;;;;8.00;7.30;;;5.30;40.60;;;;;;5012883;28;20799;-65
2021/01/08 00:34:08;;;;;;;7.83;7.03;;;5.30;39.80;;;;;;5012725;28;20792;-65
2021/01/08 00:36:35;;;;;;;9.00;7.87;;;5.40;40.40;;;;;;5013041;28;20457;-66
2021/01/08 00:39:02;;;;;;;8.43;7.60;;;5.30;40.10;;;;;;5012476;28;20411;-66
2021/01/08 00:41:33;;;;;;;7.93;7.13;;;5.20;40.20;;;;;;5012611;28;20507;-66
2021/01/08 00:44:02;;;;;;;7.87;6.73;;;4.80;40.70;;;;;;5012827;28;20441;-66
2021/01/08 00:46:38;;;;;;;7.17;6.47;;;4.80;42.20;;;;;;5012701;28;20857;-65
2021/01/08 00:49:05;;;;;;;8.60;6.63;;;4.60;42.30;;;;;;5012274;28;20954;-66
2021/01/08 00:51:35;;;;;;;7.40;6.07;;;4.80;42.70;;;;;;5012657;28;20791;-65
2021/01/08 00:54:02;;;;;;;7.03;6.43;;;4.90;41.50;;;;;;5012469;28;20463;-66
2021/01/08 00:56:28;;;;;;;7.53;6.73;;;5.00;40.90;;;;;;5012599;28;20478;-66
2021/01/08 00:58:54;;;;;;;6.97;6.27;;;5.00;40.80;;;;;;5012270;28;20400;-66
2021/01/08 01:01:20;;;;;;;7.77;6.60;;;5.20;39.60;;;;;;5012281;28;20272;-66
2021/01/08 01:03:46;;;;;;;7.57;6.90;;;5.20;39.90;;;;;;5012593;28;20516;-66
2021/01/08 01:06:21;;;;;;;6.90;6.30;;;5.00;40.30;;;;;;5012178;28;20430;-66
2021/01/08 01:08:46;;;;;;;7.70;6.73;;;5.00;41.00;;;;;;5012095;28;20412;-65
2021/01/08 01:11:15;;;;;;;6.83;6.23;;;4.90;41.00;;;;;;5012149;28;20414;-66
2021/01/08 01:13:40;;;;;;;7.13;5.97;;;5.10;41.60;;;;;;5012268;28;20795;-66
2021/01/08 01:16:06;;;;;;;6.77;6.17;;;5.00;40.10;;;;;;5012061;28;20428;-65
2021/01/08 01:18:31;;;;;;;6.40;5.83;;;5.00;39.70;;;;;;5011757;28;20178;-66
2021/01/08 01:20:57;;;;;;;7.40;6.30;;;5.00;40.30;;;;;;5011982;28;20314;-66
2021/01/08 01:23:22;;;;;;;7.77;5.97;;;4.90;40.30;;;;;;5011781;28;20172;-65
2021/01/08 01:25:48;;;;;;;6.90;6.20;;;4.80;41.00;;;;;;5011856;28;20205;-65
2021/01/08 01:28:13;;;;;;;6.80;6.20;;;4.90;40.30;;;;;;5011772;28;20185;-65
2021/01/08 01:30:39;;;;;;;6.90;6.20;;;4.60;41.00;;;;;;5011784;28;20173;-66
2021/01/08 01:33:04;;;;;;;7.00;6.30;;;4.60;41.40;;;;;;5011693;28;20169;-67
2021/01/08 01:35:30;;;;;;;6.30;5.73;;;4.70;41.00;;;;;;5011594;28;20207;-65
2021/01/08 01:37:56;;;;;;;7.50;6.83;;;4.50;41.20;;;;;;5011439;28;20694;-66
2021/01/08 01:40:21;;;;;;;6.00;5.40;;;4.40;41.90;;;;;;5011241;28;20180;-65
2021/01/08 01:42:47;;;;;;;6.67;5.90;;;4.30;42.00;;;;;;5011557;28;20249;-65
2021/01/08 01:45:13;;;;;;;6.23;5.67;;;4.00;42.60;;;;;;5011527;28;20624;-66
2021/01/08 01:47:39;;;;;;;7.17;6.47;;;4.00;43.40;;;;;;5011300;28;20228;-65
2021/01/08 01:50:06;;;;;;;6.50;5.80;;;4.20;42.80;;;;;;5011905;28;20415;-66
2021/01/08 01:52:32;;;;;;;7.30;6.70;;;4.40;41.90;;;;;;5011417;28;20412;-66
2021/01/08 01:54:58;;;;;;;7.57;6.87;;;4.60;41.70;;;;;;5011518;28;20825;-65
2021/01/08 01:57:23;;;;;;;6.50;5.87;;;4.30;41.70;;;;;;5011298;28;20412;-65
2021/01/08 01:59:49;;;;;;;6.60;5.90;;;4.50;41.70;;;;;;5011503;28;20178;-65
2021/01/08 02:02:28;;;;;;;6.80;6.10;;;4.60;41.00;;;;;;5011633;28;20255;-65
2021/01/08 02:04:56;;;;;;;8.77;6.27;;;4.60;40.70;;;;;;5011460;28;20205;-65
2021/01/08 02:07:23;;;;;;;5.73;5.23;;;4.40;41.10;;;;;;5011285;28;20423;-66
2021/01/08 02:09:50;;;;;;;6.27;5.77;;;4.10;42.20;;;;;;5011531;28;20448;-65
2021/01/08 02:12:17;;;;;;;6.40;5.77;;;4.10;43.30;;;;;;5011490;28;20415;-66
2021/01/08 02:14:45;;;;;;;7.00;6.30;;;4.20;42.80;;;;;;5011252;28;20464;-65
2021/01/08 02:17:13;;;;;;;7.10;6.50;;;4.30;42.80;;;;;;5011222;28;20405;-65
2021/01/08 02:19:45;;;;;;;5.30;4.90;;;4.10;42.70;;;;;;5011213;28;20412;-65
2021/01/08 02:22:23;;;;;;;6.37;5.77;;;4.20;42.80;;;;;;5011277;28;20404;-65
2021/01/08 02:25:06;;;;;;;6.00;5.40;;;4.50;42.00;;;;;;5011055;28;20455;-65
2021/01/08 02:27:34;;;;;;;6.70;5.33;;;4.40;41.70;;;;;;5011117;28;20499;-64
2021/01/08 02:30:00;;;;;;;6.43;5.83;;;4.20;42.00;;;;;;5011059;28;20527;-64
2021/01/08 02:32:26;;;;;;;6.83;5.73;;;4.30;42.70;;;;;;5011154;28;20479;-65
2021/01/08 02:34:53;;;;;;;5.70;5.20;;;4.50;41.50;;;;;;5011028;28;20560;-65
2021/01/08 02:37:19;;;;;;;5.40;4.90;;;4.60;40.60;;;;;;5010833;28;20491;-65
2021/01/08 02:39:45;;;;;;;5.90;5.30;;;4.30;40.50;;;;;;5011046;28;20439;-65
2021/01/08 02:42:14;;;;;;;5.80;4.67;;;4.20;41.30;;;;;;5010943;28;20419;-65
2021/01/08 02:44:39;;;;;;;4.77;4.37;;;4.30;40.60;;;;;;5010926;28;20432;-65
2021/01/08 02:47:05;;;;;;;5.30;4.77;;;4.50;40.10;;;;;;5010727;28;20475;-66
2021/01/08 02:49:30;;;;;;;5.00;4.60;;;4.40;39.90;;;;;;5011172;28;20610;-65
2021/01/08 02:52:02;;;;;;;5.43;4.93;;;4.50;39.00;;;;;;5010903;28;20236;-66
2021/01/08 02:54:28;;;;;;;5.60;5.00;;;4.20;40.40;;;;;;5014812;28;20209;-65
2021/01/08 02:56:54;;;;;;;5.33;4.80;;;4.30;39.70;;;;;;5014719;28;20976;-65
2021/01/08 02:59:21;;;;;;;5.80;5.20;;;4.40;40.10;;;;;;5014649;28;20181;-66
2021/01/08 03:01:47;;;;;;;5.40;4.93;;;4.50;39.20;;;;;;5014588;28;20414;-65
2021/01/08 03:04:13;;;;;;;5.87;4.70;;;4.40;40.20;;;;;;5014474;28;20514;-65
2021/01/08 03:06:42;;;;;;;6.50;5.80;;;4.50;39.60;;;;;;5014581;28;20181;-65
2021/01/08 03:09:08;;;;;;;5.60;5.10;;;4.30;39.70;;;;;;5014420;28;20173;-65
2021/01/08 03:11:33;;;;;;;5.47;4.87;;;4.40;40.00;;;;;;5014449;28;20782;-65
2021/01/08 03:13:59;;;;;;;5.40;4.70;;;4.50;40.40;;;;;;5014372;28;20209;-66
2021/01/08 03:16:25;;;;;;;6.13;5.53;;;4.70;40.50;;;;;;5014507;28;20596;-66
2021/01/08 03:18:50;;;;;;;4.80;4.40;;;4.40;40.10;;;;;;5014241;28;20495;-65
2021/01/08 03:21:16;;;;;;;5.40;4.90;;;4.40;41.50;;;;;;5014372;28;20173;-65
2021/01/08 03:23:41;;;;;;;6.13;5.63;;;4.70;40.70;;;;;;5014120;28;20539;-66
2021/01/08 03:26:07;;;;;;;5.07;4.57;;;4.80;40.30;;;;;;5014106;28;20197;-65
2021/01/08 03:28:32;;;;;;;5.10;4.70;;;5.00;39.30;;;;;;5013989;28;20200;-65
2021/01/08 03:30:58;;;;;;;5.50;4.97;;;5.10;39.30;;;;;;5014035;28;20205;-66
2021/01/08 03:33:24;;;;;;;5.20;4.70;;;5.20;38.70;;;;;;5014174;28;20196;-66
2021/01/08 03:35:49;;;;;;;6.43;5.70;;;5.10;38.90;;;;;;5013913;28;20574;-66
2021/01/08 03:38:15;;;;;;;6.70;5.30;;;5.00;39.10;;;;;;5013801;28;20176;-65
2021/01/08 03:40:41;;;;;;;5.73;5.23;;;4.60;40.70;;;;;;5013907;28;20592;-65
2021/01/08 03:43:10;;;;;;;6.23;5.63;;;4.40;40.90;;;;;;5013930;28;20182;-65
2021/01/08 03:45:36;;;;;;;6.80;6.20;;;4.10;41.50;;;;;;5013733;28;20436;-66
2021/01/08 03:48:02;;;;;;;6.67;6.07;;;4.00;42.00;;;;;;5013563;28;20409;-65
2021/01/08 03:50:28;;;;;;;6.77;6.07;;;4.20;41.30;;;;;;5013804;28;20408;-66
2021/01/08 03:52:53;;;;;;;6.73;6.13;;;4.30;41.30;;;;;;5013803;28;20409;-66
2021/01/08 03:55:19;;;;;;;6.53;5.40;;;4.10;41.60;;;;;;5013636;28;20213;-65
2021/01/08 03:57:45;;;;;;;6.13;5.53;;;4.00;42.60;;;;;;5013590;28;20177;-65
2021/01/08 04:00:11;;;;;;;6.20;5.60;;;4.40;42.10;;;;;;5013615;28;20177;-66
2021/01/08 04:02:36;;;;;;;7.47;6.00;;;4.30;41.20;;;;;;5013796;28;20173;-65
2021/01/08 04:05:02;;;;;;;7.07;6.37;;;4.40;41.60;;;;;;5013408;28;20428;-66
2021/01/08 04:07:28;;;;;;;5.80;5.30;;;4.20;41.20;;;;;;5013515;28;20912;-65
2021/01/08 04:09:53;;;;;;;6.80;5.80;;;3.90;42.20;;;;;;5013338;28;20408;-65
2021/01/08 04:12:19;;;;;;;8.23;5.57;;;4.30;41.60;;;;;;5013277;28;20227;-66
2021/01/08 04:14:44;;;;;;;5.83;5.30;;;4.10;41.30;;;;;;5013078;28;20284;-66
2021/01/08 04:17:10;;;;;;;6.30;5.80;;;4.00;41.60;;;;;;5013069;28;20703;-65
2021/01/08 04:19:35;;;;;;;6.30;5.67;;;4.10;41.10;;;;;;5013198;28;20228;-65
2021/01/08 04:22:01;;;;;;;5.93;5.33;;;4.10;41.30;;;;;;5013207;28;20227;-65
2021/01/08 04:24:26;;;;;;;5.60;5.10;;;4.10;40.80;;;;;;5012793;28;20216;-66
2021/01/08 04:26:53;;;;;;;5.63;5.13;;;4.50;40.20;;;;;;5013008;28;20697;-65
2021/01/08 04:29:18;;;;;;;6.37;5.77;;;4.60;39.90;;;;;;5012764;28;20252;-66
2021/01/08 04:31:44;;;;;;;6.17;5.57;;;4.70;39.80;;;;;;5012910;28;20519;-65
2021/01/08 04:34:10;;;;;;;5.50;5.10;;;4.90;40.10;;;;;;5012771;28;20573;-66
2021/01/08 04:36:35;;;;;;;6.30;5.70;;;5.00;39.30;;;;;;5012773;28;20172;-65
2021/01/08 04:39:01;;;;;;;7.27;5.33;;;4.80;40.00;;;;;;5012549;28;20212;-65
2021/01/08 04:41:28;;;;;;;6.27;5.67;;;4.90;39.90;;;;;;5012717;28;20176;-65
2021/01/08 04:43:54;;;;;;;7.60;5.90;;;4.90;39.80;;;;;;5012509;28;20201;-65
2021/01/08 04:46:25;;;;;;;7.83;6.40;;;5.00;39.00;;;;;;5012607;28;20470;-65
2021/01/08 04:48:55;;;;;;;6.33;5.70;;;4.90;39.60;;;;;;5012428;28;20440;-65
2021/01/08 04:51:23;;;;;;;6.80;6.20;;;4.90;39.50;;;;;;5012729;28;20412;-65
2021/01/08 04:53:49;;;;;;;7.00;6.30;;;4.80;39.00;;;;;;5012433;28;20455;-66
2021/01/08 04:56:17;;;;;;;6.00;5.40;;;4.60;39.90;;;;;;5012704;28;20405;-66
2021/01/08 04:58:45;;;;;;;7.27;6.57;;;4.60;40.00;;;;;;5012483;28;20169;-65
2021/01/08 05:01:10;;;;;;;7.10;6.50;;;4.80;39.40;;;;;;5012488;28;20458;-65
2021/01/08 05:03:36;;;;;;;6.13;5.57;;;4.80;39.40;;;;;;5012393;28;20888;-65
2021/01/08 05:06:02;;;;;;;6.10;5.57;;;4.50;40.00;;;;;;5012124;28;20249;-66
2021/01/08 05:08:27;;;;;;;7.87;5.90;;;4.60;40.20;;;;;;5011910;28;20408;-66
2021/01/08 05:10:55;;;;;;;6.73;6.13;;;4.60;40.60;;;;;;5012287;28;20636;-65
2021/01/08 05:13:20;;;;;;;6.80;6.10;;;4.50;40.20;;;;;;5012290;28;20257;-65
2021/01/08 05:15:53;;;;;;;7.00;6.30;;;4.40;40.70;;;;;;5011433;28;20535;-66
2021/01/08 05:18:22;;;;;;;7.70;6.50;;;4.60;41.00;;;;;;5011970;28;20169;-66
2021/01/08 05:20:51;;;;;;;8.63;5.93;;;4.20;40.90;;;;;;5011907;28;20408;-66
2021/01/08 05:23:19;;;;;;;8.63;6.77;;;3.90;42.40;;;;;;5011305;28;20416;-66
2021/01/08 05:25:48;;;;;;;6.83;6.13;;;4.10;42.90;;;;;;5011724;28;20436;-65
2021/01/08 05:28:20;;;;;;;7.50;6.50;;;4.40;42.80;;;;;;5011604;28;20424;-66
2021/01/08 05:30:46;;;;;;;5.73;5.13;;;4.70;41.20;;;;;;5011500;28;20754;-66
2021/01/08 05:33:15;;;;;;;8.20;6.17;;;4.40;40.30;;;;;;5010834;28;20415;-66
2021/01/08 05:35:42;;;;;;;6.10;5.60;;;4.50;40.50;;;;;;5011383;28;20467;-66
2021/01/08 05:38:08;;;;;;;6.30;5.70;;;4.70;40.10;;;;;;5011504;28;20408;-65
2021/01/08 05:40:38;;;;;;;5.50;5.10;;;4.80;40.60;;;;;;5011617;28;20412;-66
2021/01/08 05:43:04;;;;;;;12.23;5.63;;;4.90;39.50;;;;;;5011527;28;20450;-66
2021/01/08 05:45:30;;;;;;;6.43;5.87;;;4.80;40.20;;;;;;5011484;28;20830;-66
2021/01/08 05:47:57;;;;;;;5.80;5.30;;;4.90;40.20;;;;;;5011324;28;20185;-66
2021/01/08 05:50:24;;;;;;;6.23;5.63;;;4.90;39.60;;;;;;5011535;28;20442;-66
2021/01/08 05:53:10;;;;;;;6.03;5.43;;;5.20;39.30;;;;;;5011604;28;20419;-65
2021/01/08 05:55:39;;;;;;;6.10;5.50;;;5.20;38.60;;;;;;5007909;28;20567;-67
2021/01/08 05:58:20;;;;;;;5.30;4.90;;;5.10;39.10;;;;;;5009834;28;20415;-68
2021/01/08 06:00:56;;;;;;;6.40;5.80;;;4.90;39.20;;;;;;5011153;28;20891;-65
2021/01/08 06:03:22;;;;;;;5.83;5.23;;;4.70;39.70;;;;;;5010589;28;20410;-66
2021/01/08 06:05:55;;;;;;;5.93;5.40;;;4.50;40.70;;;;;;5010956;28;20923;-65
2021/01/08 06:08:24;;;;;;;5.67;5.17;;;4.80;40.50;;;;;;5010649;28;20419;-66
2021/01/08 06:10:55;;;;;;;6.10;5.50;;;4.60;39.60;;;;;;5010317;28;20418;-67
2021/01/08 06:13:24;;;;;;;5.37;4.97;;;4.50;40.50;;;;;;5010570;28;20963;-66
2021/01/08 06:15:52;;;;;;;5.90;5.30;;;4.30;40.50;;;;;;5010609;28;20472;-66
2021/01/08 06:18:20;;;;;;;5.23;4.80;;;4.60;41.00;;;;;;5010738;28;20417;-66
2021/01/08 06:20:50;;;;;;;5.20;4.80;;;4.50;40.90;;;;;;5010610;28;20409;-67
2021/01/08 06:23:41;;;;;;;4.80;4.40;;;4.70;40.70;;;;;;5010528;28;20960;-66
2021/01/08 06:26:11;;;;;;;4.93;4.53;;;4.60;40.00;;;;;;5009542;28;20802;-66
2021/01/08 06:28:44;;;;;;;5.10;4.70;;;4.90;39.90;;;;;;5014391;28;20961;-67
2021/01/08 06:31:20;;;;;;;5.00;4.60;;;5.00;39.70;;;;;;5014653;28;20842;-67
2021/01/08 06:33:52;;;;;;;5.70;5.20;;;4.90;38.40;;;;;;5014632;28;20415;-67
2021/01/08 06:36:20;;;;;;;7.67;5.40;;;5.00;38.50;;;;;;5014453;28;20751;-66
2021/01/08 06:38:51;;;;;;;5.63;4.70;;;4.90;38.90;;;;;;5014520;28;20411;-66
2021/01/08 06:41:17;;;;;;;5.27;4.87;;;5.00;38.50;;;;;;5014637;28;20413;-65
2021/01/08 06:43:47;;;;;;;4.97;4.20;;;5.00;38.60;;;;;;5014363;28;20418;-67
2021/01/08 06:46:42;;;;;;;5.60;5.10;;;4.90;38.70;;;;;;5014478;28;20428;-66
2021/01/08 06:49:12;;;;;;;6.90;5.17;;;4.90;38.70;;;;;;5014061;28;20958;-67
2021/01/08 06:51:43;;;;;;;5.47;4.97;;;4.90;39.30;;;;;;5014255;28;20419;-68
2021/01/08 06:54:10;;;;;;;5.00;4.60;;;4.90;38.40;;;;;;5014235;28;20815;-65
2021/01/08 06:56:40;;;;;;;7.07;5.40;;;4.90;38.80;;;;;;5014282;28;20416;-64
2021/01/08 06:59:11;;;;;;;5.57;4.70;;;4.80;45.20;;;;;;5013854;28;20903;-66
2021/01/08 07:01:47;;;;;;;4.67;4.27;;;5.20;48.40;;;;;;5014557;28;20435;-65
2021/01/08 07:04:13;;;;;;;8.27;4.57;;;5.60;48.80;;;;;;5014466;28;20934;-66
2021/01/08 07:06:39;;;;;;;4.70;4.37;;;5.60;42.80;;;;;;5014552;28;20423;-64
2021/01/08 07:09:07;;;;;;;5.63;5.23;;;5.80;42.80;;;;;;5014297;28;20446;-64
2021/01/08 07:11:34;;;;;;;6.77;5.90;;;5.70;40.50;;;;;;5014538;28;20774;-68
2021/01/08 07:14:22;;;;;;;7.40;5.63;;;5.40;41.00;;;;;;5014354;28;20470;-63
2021/01/08 07:16:50;;;;;;;6.67;6.07;;;5.30;38.70;;;;;;5014411;28;20408;-64
2021/01/08 07:19:19;;;;;;;6.00;5.50;;;5.30;38.50;;;;;;5014006;28;20426;-64
2021/01/08 07:21:49;;;;;;;5.30;4.80;;;5.20;38.60;;;;;;5012322;28;20419;-65
2021/01/08 07:24:17;;;;;;;5.10;4.67;;;5.10;38.50;;;;;;5012859;28;20463;-66
2021/01/08 07:26:43;;;;;;;5.67;5.17;;;5.10;39.60;;;;;;5014090;28;20473;-65
2021/01/08 07:29:10;;;;;;;5.87;5.37;;;5.00;39.60;;;;;;5013555;28;20412;-66
2021/01/08 07:31:37;;;;;;;11.43;5.20;;;5.00;39.60;;;;;;5013927;28;20419;-64
2021/01/08 07:34:07;;;;;;;6.50;5.20;;;4.90;40.10;;;;;;5013753;28;20535;-65
2021/01/08 07:36:34;;;;;;;5.70;4.90;;;4.80;40.00;;;;;;5013868;28;20404;-65
2021/01/08 07:39:00;;;;;;;5.20;4.80;;;4.50;41.00;;;;;;5012321;28;20848;-65
2021/01/08 07:41:34;;;;;;;6.27;4.67;;;4.20;42.30;;;;;;5013843;28;20400;-66
2021/01/08 07:44:00;;;;;;;6.03;5.53;;;4.20;43.40;;;;;;5013666;28;20408;-65
2021/01/08 07:46:35;;;;;;;6.33;5.57;;;4.30;42.60;;;;;;5013590;28;20451;-66
2021/01/08 07:49:01;;;;;;;6.03;5.43;;;4.50;41.20;;;;;;5013252;28;20451;-64
2021/01/08 07:51:47;;;;;;;5.77;5.27;;;4.20;42.00;;;;;;5013474;28;20420;-67
2021/01/08 07:54:14;;;;;;;6.40;5.80;;;4.30;42.40;;;;;;5013317;28;20479;-65
2021/01/08 07:57:07;;;;;;;5.53;4.93;;;4.30;42.30;;;;;;5013639;28;20905;-65
2021/01/08 07:59:32;;;;;;;5.33;4.83;;;4.50;42.00;;;;;;5013498;28;20847;-64
2021/01/08 08:01:58;;;;;;;6.03;5.40;;;4.50;41.60;;;;;;5013353;28;20487;-65
2021/01/08 08:04:27;;;;;;;10.60;9.60;;;4.40;41.40;;;;;;5013287;28;20197;-65
2021/01/08 08:06:53;;;;;;;6.03;5.43;;;4.70;42.00;;;;;;5013044;28;20458;-65
2021/01/08 08:09:20;;;;;;;6.03;5.43;;;4.80;41.20;;;;;;5013109;28;20451;-64
2021/01/08 08:11:46;;;;;;;5.40;4.90;;;5.10;41.30;;;;;;5018404;28;20414;-64
2021/01/08 08:14:16;;;;;;;5.70;5.07;;;4.90;40.50;;;;;;5014106;28;20464;-65
2021/01/08 08:16:42;;;;;;;4.70;4.30;;;5.00;40.80;;;;;;5013242;28;20419;-66
2021/01/08 08:19:10;;;;;;;5.13;4.73;;;4.80;40.60;;;;;;5013038;28;20798;-66
2021/01/08 08:21:37;;;;;;;4.97;4.10;;;4.50;42.00;;;;;;5012646;28;20180;-68
2021/01/08 08:24:06;;;;;;;5.47;4.97;;;4.70;41.80;;;;;;5012837;28;20429;-67
2021/01/08 08:26:34;;;;;;;5.43;4.93;;;5.00;41.10;;;;;;5012535;28;20462;-66
2021/01/08 08:29:11;;;;;;;4.73;4.27;;;5.10;40.80;;;;;;5013040;28;20400;-65
2021/01/08 08:31:41;;;;;;;5.10;4.70;;;5.10;40.20;;;;;;5013019;28;20417;-66
2021/01/08 08:34:10;;;;;;;4.83;3.90;;;5.10;41.20;;;;;;5012704;28;20452;-65
2021/01/08 08:36:36;;;;;;;4.10;3.80;;;5.30;40.50;;;;;;5012660;28;20404;-66
2021/01/08 08:39:09;;;;;;;5.43;4.93;;;5.10;43.00;;;;;;5012577;28;20919;-64
2021/01/08 08:41:37;;;;;;;4.20;3.80;;;5.10;42.00;;;;;;5012812;28;20508;-65
2021/01/08 08:44:14;;;;;;;3.73;3.43;;;5.40;41.40;;;;;;5012503;28;20416;-64
2021/01/08 08:46:44;;;;;;;3.83;3.53;;;5.40;40.20;;;;;;5012518;28;20989;-65
2021/01/08 08:49:11;;;;;;;4.97;4.47;;;5.40;41.10;;;;;;5012211;28;20968;-64
2021/01/08 08:51:43;;;;;;;4.20;3.33;;;5.00;41.30;;;;;;5011455;28;20502;-66
2021/01/08 08:54:10;;;;;;;4.37;3.97;;;4.90;41.60;;;;;;5012336;28;20450;-67
2021/01/08 08:56:39;;;;;;;4.40;4.10;;;4.70;42.90;;;;;;5012397;28;20458;-63
2021/01/08 08:59:05;;;;;;;3.60;3.30;;;5.00;43.60;;;;;;5012074;28;20414;-67
2021/01/08 09:01:43;;;;;;;4.00;3.70;;;5.10;42.20;;;;;;5012189;28;20437;-64
2021/01/08 09:04:09;;;;;;;3.90;3.60;;;5.20;42.20;;;;;;5012165;28;20175;-66
2021/01/08 09:06:43;;;;;;;4.20;3.80;;;5.40;42.40;;;;;;5012140;28;20414;-66
2021/01/08 09:09:20;;;;;;;3.17;2.97;;;5.30;42.00;;;;;;5012140;28;20403;-66
2021/01/08 09:12:11;;;;;;;3.73;3.43;;;5.30;42.90;;;;;;5012231;28;20493;-66
2021/01/08 09:14:39;;;;;;;3.23;2.93;;;5.50;41.00;;;;;;5011802;28;20464;-64
2021/01/08 09:17:19;;;;;;;3.67;3.37;;;5.40;42.10;;;;;;5011882;28;20424;-63
2021/01/08 09:19:53;;;;;;;3.97;3.67;;;5.50;41.30;;;;;;5012096;28;20481;-64
2021/01/08 09:22:18;;;;;;;3.73;3.43;;;5.60;41.30;;;;;;5011892;28;20749;-63
2021/01/08 09:24:47;;;;;;;3.40;3.17;;;5.60;40.60;;;;;;5011549;28;20461;-63
2021/01/08 09:27:13;;;;;;;3.57;3.33;;;5.60;41.30;;;;;;5011761;28;20189;-62
2021/01/08 09:29:39;;;;;;;5.43;5.00;;;5.60;40.60;;;;;;5011796;28;20410;-63
2021/01/08 09:32:06;;;;;;;4.37;4.07;;;5.40;41.10;;;;;;5011990;28;20761;-62
2021/01/08 09:34:33;;;;;;;4.27;3.87;;;5.40;42.20;;;;;;5011623;28;20546;-64
2021/01/08 09:37:10;;;;;;;3.83;3.53;;;5.20;41.90;;;;;;5011431;28;20408;-64
2021/01/08 09:39:38;;;;;;;3.37;3.07;;;5.30;41.60;;;;;;5011777;28;20417;-66
2021/01/08 09:42:04;;;;;;;3.70;3.40;;;5.40;41.90;;;;;;5011666;28;20775;-65
2021/01/08 09:44:31;;;;;;;3.57;3.27;;;5.40;42.10;;;;;;5011458;28;20447;-64
2021/01/08 09:47:06;;;;;;;3.70;3.40;;;5.40;41.30;;;;;;5011618;28;20261;-64
2021/01/08 09:49:48;;;;;;;8.33;4.00;;;5.40;40.50;;;;;;5011689;28;20419;-66
2021/01/08 09:52:13;;;;;;;3.80;3.53;;;5.30;42.20;;;;;;5011433;28;20408;-64
2021/01/08 09:54:48;;;;;;;4.67;3.90;;;5.20;40.40;;;;;;5011155;28;20808;-66
2021/01/08 09:57:27;;;;;;;4.07;3.77;;;5.20;41.30;;;;;;5011148;28;20691;-65
2021/01/08 09:59:57;;;;;;;4.43;4.00;;;5.30;39.70;;;;;;5011328;28;20404;-67
2021/01/08 10:02:42;;;;;;;3.53;3.33;;;5.50;40.60;;;;;;5011044;28;20423;-63
2021/01/08 10:05:27;;;;;;;3.33;3.13;;;5.60;39.00;;;;;;5010961;28;20950;-64
2021/01/08 10:07:54;;;;;;;3.90;3.60;;;5.30;39.10;;;;;;5011070;28;20409;-66
2021/01/08 10:10:25;;;;;;;3.47;3.27;;;5.60;39.90;;;;;;5011038;28;20496;-65
2021/01/08 10:12:51;;;;;;;3.17;2.97;;;5.60;39.40;;;;;;5011147;28;20773;-67
2021/01/08 10:15:18;;;;;;;3.77;3.47;;;5.70;39.40;;;;;;5010850;28;20555;-64
2021/01/08 10:17:48;;;;;;;3.80;3.50;;;5.70;39.00;;;;;;5010858;28;20412;-65
2021/01/08 10:20:24;;;;;;;3.43;3.13;;;5.70;39.00;;;;;;5011059;28;20418;-65
2021/01/08 10:22:52;;;;;;;3.37;3.07;;;5.60;36.60;;;;;;5010928;28;20432;-64
2021/01/08 10:25:35;;;;;;;3.63;3.33;;;5.60;37.80;;;;;;5010876;28;20547;-64
2021/01/08 10:28:34;;;;;;;3.33;3.03;;;5.50;36.90;;;;;;5010969;28;20892;-64
2021/01/08 10:31:00;;;;;;;3.00;2.80;;;5.60;36.60;;;;;;5009680;28;20975;-64
2021/01/08 10:33:26;;;;;;;3.40;3.20;;;5.80;36.00;;;;;;5010745;28;20419;-64
2021/01/08 10:35:53;;;;;;;3.57;3.30;;;5.60;36.20;;;;;;5010589;28;20217;-67
2021/01/08 10:38:20;;;;;;;3.73;3.43;;;5.50;37.10;;;;;;4991020;28;20413;-65
2021/01/08 10:40:45;;;;;;;3.00;2.80;;;5.40;36.20;;;;;;4991240;28;20775;-65
2021/01/08 10:43:11;;;;;;;3.83;3.53;;;5.30;38.70;;;;;;4991217;28;20414;-65
2021/01/08 10:45:37;;;;;;;3.00;2.80;;;5.10;37.50;;;;;;4990966;28;20197;-64
2021/01/08 10:48:04;;;;;;;3.73;3.43;;;5.30;38.70;;;;;;4991266;28;20228;-65
2021/01/08 10:50:29;;;;;;;3.43;3.23;;;5.20;39.00;;;;;;4993876;28;20452;-66
2021/01/08 10:52:55;;;;;;;3.43;3.13;;;5.40;38.80;;;;;;4985971;28;20432;-63
2021/01/08 10:55:20;;;;;;;3.60;3.40;;;5.60;37.90;;;;;;4984978;28;20210;-65
2021/01/08 10:57:46;;;;;;;3.10;2.90;;;5.60;37.30;;;;;;5002276;28;20185;-64
2021/01/08 11:00:13;;;;;;;3.27;3.07;;;5.70;36.20;;;;;;5004529;28;20188;-65
2021/01/08 11:02:40;;;;;;;3.57;3.27;;;5.70;36.50;;;;;;5004498;28;20184;-64
2021/01/08 11:05:24;;;;;;;4.47;4.07;;;5.60;37.30;;;;;;5004952;28;20790;-73
2021/01/08 11:07:50;;;;;;;4.50;4.10;;;5.60;37.20;;;;;;5002892;28;20416;-66
2021/01/08 11:10:16;;;;;;;4.43;4.03;;;5.70;37.30;;;;;;5004269;28;20420;-65
2021/01/08 11:12:43;;;;;;;4.40;3.90;;;5.50;37.10;;;;;;5004566;28;20258;-65
2021/01/08 11:15:08;;;;;;;4.20;3.80;;;5.50;38.00;;;;;;5007692;28;20479;-66
2021/01/08 11:17:34;;;;;;;4.27;3.90;;;5.60;37.10;;;;;;5008478;28;20412;-66
2021/01/08 11:20:00;;;;;;;4.13;3.83;;;5.60;36.70;;;;;;5008252;28;20822;-66
2021/01/08 11:22:26;;;;;;;4.00;3.70;;;5.60;35.30;;;;;;5016621;28;20678;-67
2021/01/08 11:24:52;;;;;;;4.00;3.73;;;5.70;35.90;;;;;;5027753;28;20307;-67
2021/01/08 11:27:17;;;;;;;3.70;3.40;;;5.60;35.80;;;;;;5027561;28;20506;-66
2021/01/08 11:29:43;;;;;;;4.43;3.77;;;5.50;36.00;;;;;;5027592;28;20701;-66
2021/01/08 11:32:09;;;;;;;4.30;4.00;;;5.50;37.40;;;;;;5027516;28;20188;-67
2021/01/08 11:34:35;;;;;;;4.00;3.70;;;5.60;35.70;;;;;;5027692;28;20966;-68
2021/01/08 11:37:01;;;;;;;5.33;3.97;;;5.80;35.90;;;;;;5027379;28;20412;-67
2021/01/08 11:39:26;;;;;;;4.43;4.03;;;5.80;37.10;;;;;;5027795;28;21124;-67
2021/01/08 11:41:55;;;;;;;4.20;3.90;;;6.00;36.30;;;;;;5031776;28;20648;-66
2021/01/08 11:44:22;;;;;;;4.57;3.63;;;5.80;35.40;;;;;;5030811;28;20199;-64
2021/01/08 11:46:49;;;;;;;4.97;4.47;;;5.70;36.20;;;;;;5011851;28;20825;-64
2021/01/08 11:49:15;;;;;;;4.43;3.40;;;5.70;34.70;;;;;;5011249;28;20416;-65
2021/01/08 11:51:41;;;;;;;4.40;3.70;;;5.70;34.60;;;;;;5011740;28;20414;-64
2021/01/08 11:54:06;;;;;;;3.97;3.57;;;5.70;35.80;;;;;;5011363;28;21028;-67
2021/01/08 11:56:32;;;;;;;3.10;2.90;;;5.80;34.50;;;;;;5011565;28;20701;-66
2021/01/08 11:58:58;;;;;;;5.50;5.00;;;5.90;34.00;;;;;;5012167;28;20194;-66
2021/01/08 12:01:24;;;;;;;4.17;3.87;;;5.80;33.60;;;;;;5012180;28;20217;-64
2021/01/08 12:03:50;;;;;;;4.70;3.80;;;5.80;35.50;;;;;;5012121;28;20172;-64
2021/01/08 12:06:16;;;;;;;4.20;3.90;;;5.70;33.70;;;;;;5013443;28;20428;-67
2021/01/08 12:08:42;;;;;;;4.20;3.80;;;5.70;33.60;;;;;;5013001;28;20174;-65
2021/01/08 12:11:07;;;;;;;4.70;3.63;;;5.70;34.10;;;;;;5013066;28;20922;-64
2021/01/08 12:13:33;;;;;;;3.90;3.47;;;6.00;33.80;;;;;;5013196;28;20249;-64
2021/01/08 12:15:58;;;;;;;4.90;4.40;;;5.90;32.70;;;;;;5012919;28;20213;-64
2021/01/08 12:18:24;;;;;;;5.97;4.47;;;6.00;33.40;;;;;;5012954;28;20248;-66
2021/01/08 12:20:49;;;;;;;5.10;4.00;;;5.90;34.40;;;;;;5012967;28;20205;-64
2021/01/08 12:23:15;;;;;;;4.67;4.00;;;5.80;33.60;;;;;;5013074;28;20170;-66
2021/01/08 12:25:42;;;;;;;4.70;4.17;;;6.00;34.90;;;;;;5012335;28;20342;-64
2021/01/08 12:28:09;;;;;;;4.50;4.10;;;5.90;34.10;;;;;;5012407;28;20447;-65
2021/01/08 12:30:35;;;;;;;4.03;3.70;;;5.90;34.50;;;;;;5012930;28;20499;-64
2021/01/08 12:33:01;;;;;;;4.40;4.10;;;5.80;33.10;;;;;;5012902;28;20875;-66
2021/01/08 12:35:27;;;;;;;5.10;4.20;;;5.90;34.30;;;;;;5012580;28;20496;-67
2021/01/08 12:37:54;;;;;;;4.90;4.50;;;5.70;34.00;;;;;;5012831;28;20496;-66
2021/01/08 12:40:20;;;;;;;5.13;4.57;;;5.80;33.80;;;;;;5012475;28;20412;-66
2021/01/08 12:42:47;;;;;;;4.33;4.03;;;5.80;33.80;;;;;;5012666;28;20441;-67
2021/01/08 12:45:14;;;;;;;4.90;4.50;;;5.60;33.80;;;;;;5012607;28;20430;-67
2021/01/08 12:47:39;;;;;;;4.43;4.03;;;5.70;33.80;;;;;;5012190;28;20959;-66
2021/01/08 12:50:06;;;;;;;5.40;4.57;;;5.60;36.40;;;;;;5012304;28;20420;-66
2021/01/08 12:52:31;;;;;;;4.87;4.40;;;5.80;34.70;;;;;;5012358;28;20209;-67
2021/01/08 12:54:57;;;;;;;18.00;5.20;;;5.80;33.60;;;;;;5012203;28;20502;-67
2021/01/08 12:57:23;;;;;;;6.97;5.27;;;5.60;34.60;;;;;;5012265;28;20574;-67
2021/01/08 12:59:48;;;;;;;5.50;5.00;;;5.60;34.90;;;;;;5012418;28;20177;-68
2021/01/08 13:02:14;;;;;;;5.53;5.03;;;5.70;35.00;;;;;;5012310;28;20184;-67
2021/01/08 13:04:40;;;;;;;5.20;4.70;;;5.80;35.00;;;;;;5012335;28;20600;-67